createdAt,value
2019-06-27T00:03:43.589Z,17.57
2019-06-27T00:09:04.374Z,17.46
2019-06-27T00:14:23.461Z,17.28
2019-06-27T00:19:42.588Z,17.12
2019-06-27T00:25:01.808Z,16.96
2019-06-27T00:30:21.070Z,16.83
2019-06-27T00:35:40.234Z,16.65
2019-06-27T00:40:59.397Z,16.47
2019-06-27T00:46:18.549Z,16.36
2019-06-27T00:51:37.734Z,16.27
2019-06-27T00:57:12.569Z,16.14
2019-06-27T01:02:17.787Z,15.99
2019-06-27T01:07:36.912Z,15.91
2019-06-27T01:12:56.066Z,15.84
2019-06-27T01:18:15.598Z,15.79
2019-06-27T01:23:34.813Z,15.74
2019-06-27T01:28:53.973Z,15.65
2019-06-27T01:34:13.144Z,15.56
2019-06-27T01:39:32.315Z,15.43
2019-06-27T01:44:53.130Z,15.13
2019-06-27T01:50:12.348Z,15.13
2019-06-27T01:55:31.534Z,15.03
2019-06-27T02:00:50.767Z,14.98
2019-06-27T02:06:10.009Z,14.86
2019-06-27T02:11:29.162Z,14.82
2019-06-27T02:16:48.345Z,14.76
2019-06-27T02:22:07.508Z,14.67
2019-06-27T02:27:26.604Z,14.70
2019-06-27T02:32:45.799Z,14.73
2019-06-27T02:38:05.096Z,14.73
2019-06-27T02:43:24.313Z,14.78
2019-06-27T02:48:43.497Z,14.73
2019-06-27T02:54:02.662Z,14.67
2019-06-27T02:59:21.858Z,14.61
2019-06-27T03:04:40.998Z,14.54
2019-06-27T03:10:00.173Z,14.48
2019-06-27T03:15:19.403Z,14.49
2019-06-27T03:20:38.934Z,14.46
2019-06-27T03:25:58.125Z,14.43
2019-06-27T03:31:17.384Z,14.39
2019-06-27T03:36:36.845Z,14.32
2019-06-27T03:41:56.021Z,14.28
2019-06-27T03:47:15.158Z,14.28
2019-06-27T03:52:34.705Z,14.22
2019-06-27T03:57:53.793Z,14.24
2019-06-27T04:03:12.953Z,14.27
2019-06-27T04:08:32.132Z,14.27
2019-06-27T04:13:51.332Z,14.29
2019-06-27T04:19:10.564Z,14.24
2019-06-27T04:24:29.797Z,14.22
2019-06-27T04:29:48.961Z,14.27
2019-06-27T04:35:08.181Z,14.35
2019-06-27T04:40:27.349Z,14.40
2019-06-27T04:45:46.499Z,14.42
2019-06-27T04:51:05.655Z,14.52
2019-06-27T04:56:24.984Z,14.54
2019-06-27T05:01:44.132Z,14.63
2019-06-27T05:07:03.234Z,14.64
2019-06-27T05:12:22.379Z,14.79
2019-06-27T05:17:41.463Z,14.77
2019-06-27T05:23:00.625Z,14.90
2019-06-27T05:28:19.800Z,14.95
2019-06-27T05:33:38.946Z,15.56
2019-06-27T05:38:58.102Z,16.42
2019-06-27T05:44:17.232Z,15.89
2019-06-27T05:49:36.390Z,15.90
2019-06-27T05:54:55.539Z,15.84
2019-06-27T06:00:27.760Z,17.12
2019-06-27T06:05:36.155Z,18.14
2019-06-27T06:10:55.368Z,18.34
2019-06-27T06:16:14.438Z,18.42
2019-06-27T06:21:33.605Z,18.37
2019-06-27T06:26:52.756Z,19.42
2019-06-27T06:32:11.871Z,19.21
2019-06-27T06:37:31.032Z,18.55
2019-06-27T06:42:50.227Z,18.02
2019-06-27T06:48:09.451Z,18.83
2019-06-27T06:53:28.561Z,19.28
2019-06-27T06:58:47.926Z,19.31
2019-06-27T07:04:07.076Z,19.21
2019-06-27T07:09:26.395Z,18.84
2019-06-27T07:14:45.615Z,18.83
2019-06-27T07:20:05.969Z,19.06
2019-06-27T07:25:25.125Z,18.79
2019-06-27T07:30:44.368Z,18.95
2019-06-27T07:36:03.491Z,18.61
2019-06-27T07:41:22.686Z,19.03
2019-06-27T07:46:41.881Z,18.88
2019-06-27T07:52:01.043Z,19.42
2019-06-27T07:57:20.176Z,19.85
2019-06-27T08:02:39.319Z,19.72
2019-06-27T08:07:58.523Z,20.18
2019-06-27T08:13:17.659Z,19.97
2019-06-27T08:18:36.810Z,20.05
2019-06-27T08:23:55.967Z,19.69
2019-06-27T08:29:15.120Z,19.74
2019-06-27T08:34:34.504Z,20.50
2019-06-27T08:39:53.626Z,19.88
2019-06-27T08:45:13.797Z,20.43
2019-06-27T08:50:32.913Z,20.78
2019-06-27T08:55:52.092Z,20.68
2019-06-27T09:01:11.292Z,20.66
2019-06-27T09:06:30.830Z,20.87
2019-06-27T09:11:50.001Z,21.24
2019-06-27T09:17:09.175Z,21.65
2019-06-27T09:22:28.367Z,21.79
2019-06-27T09:27:47.832Z,21.24
2019-06-27T09:33:07.003Z,21.93
2019-06-27T09:38:26.170Z,22.26
2019-06-27T09:43:45.382Z,21.70
2019-06-27T09:49:04.947Z,22.09
2019-06-27T09:54:24.097Z,22.29
2019-06-27T09:59:43.246Z,22.44
2019-06-27T10:05:02.448Z,22.62
2019-06-27T10:10:21.589Z,22.51
2019-06-27T10:15:40.751Z,22.86
2019-06-27T10:20:59.938Z,22.95
2019-06-27T10:26:19.064Z,22.91
2019-06-27T10:31:38.177Z,23.05
2019-06-27T10:36:57.353Z,22.79
2019-06-27T10:42:17.166Z,23.28
2019-06-27T10:47:36.326Z,23.18
2019-06-27T10:52:55.473Z,23.27
2019-06-27T10:58:14.552Z,23.02
2019-06-27T11:03:33.925Z,23.64
2019-06-27T11:08:53.088Z,23.54
2019-06-27T11:14:12.602Z,24.48
2019-06-27T11:19:31.795Z,23.82
2019-06-27T11:24:50.989Z,23.78
2019-06-27T11:30:10.284Z,24.01
2019-06-27T11:35:29.595Z,24.01
2019-06-27T11:40:48.755Z,24.29
2019-06-27T11:46:08.983Z,24.22
2019-06-27T11:51:28.547Z,24.17
2019-06-27T11:56:47.731Z,24.06
2019-06-27T12:02:07.072Z,24.80
2019-06-27T12:07:26.221Z,24.49
2019-06-27T12:12:45.372Z,24.97
2019-06-27T12:18:04.820Z,24.59
2019-06-27T12:23:24.555Z,24.27
2019-06-27T12:28:43.724Z,24.73
2019-06-27T12:34:07.333Z,25.67
2019-06-27T12:39:23.796Z,25.24
2019-06-27T12:44:42.941Z,25.03
2019-06-27T12:50:03.231Z,25.00
2019-06-27T12:55:22.717Z,25.29
2019-06-27T13:00:41.877Z,25.74
2019-06-27T13:06:01.377Z,25.68
2019-06-27T13:11:20.543Z,25.52
2019-06-27T13:16:39.830Z,25.47
2019-06-27T13:21:59.029Z,25.37
2019-06-27T13:27:18.571Z,25.23
2019-06-27T13:32:37.788Z,25.40
2019-06-27T13:37:57.940Z,25.50
2019-06-27T13:43:17.157Z,25.86
2019-06-27T13:48:36.314Z,25.45
2019-06-27T13:53:55.437Z,25.51
2019-06-27T13:59:14.903Z,25.77
2019-06-27T14:04:34.360Z,25.44
2019-06-27T14:09:57.110Z,25.81
2019-06-27T14:15:14.644Z,25.48
2019-06-27T14:20:33.816Z,25.62
2019-06-27T14:25:52.983Z,25.97
2019-06-27T14:31:12.138Z,25.49
2019-06-27T14:36:31.722Z,25.86
2019-06-27T14:41:50.836Z,25.79
2019-06-27T14:47:09.987Z,25.47
2019-06-27T14:52:29.149Z,25.95
2019-06-27T14:57:48.305Z,25.58
2019-06-27T15:03:07.447Z,25.71
2019-06-27T15:08:26.569Z,25.72
2019-06-27T15:13:45.730Z,25.91
2019-06-27T15:19:04.877Z,25.54
2019-06-27T15:24:24.034Z,25.54
2019-06-27T15:29:43.187Z,25.59
2019-06-27T15:35:02.406Z,25.55
2019-06-27T15:40:21.746Z,25.29
2019-06-27T15:45:40.847Z,25.41
2019-06-27T15:50:59.997Z,25.38
2019-06-27T15:56:19.234Z,25.61
2019-06-27T16:01:38.528Z,25.32
2019-06-27T16:06:57.666Z,25.34
2019-06-27T16:12:16.838Z,25.52
2019-06-27T16:17:36.005Z,25.47
2019-06-27T16:22:55.127Z,25.16
2019-06-27T16:28:14.391Z,25.21
2019-06-27T16:33:33.543Z,25.42
2019-06-27T16:38:52.674Z,25.03
2019-06-27T16:44:11.795Z,25.03
2019-06-27T16:49:31.272Z,25.35
2019-06-27T16:54:50.788Z,25.29
2019-06-27T17:00:10.144Z,25.10
2019-06-27T17:05:29.342Z,24.86
2019-06-27T17:10:48.505Z,25.01
2019-06-27T17:16:07.653Z,24.63
2019-06-27T17:21:26.807Z,24.85
2019-06-27T17:26:45.961Z,24.62
2019-06-27T17:32:06.520Z,24.67
2019-06-27T17:37:25.819Z,24.64
2019-06-27T17:42:44.997Z,24.64
2019-06-27T17:48:04.119Z,24.73
2019-06-27T17:53:23.261Z,24.75
2019-06-27T17:58:42.392Z,24.64
2019-06-27T18:04:01.597Z,24.44
2019-06-27T18:09:20.730Z,24.41
2019-06-27T18:14:39.958Z,24.71
2019-06-27T18:19:59.124Z,24.64
2019-06-27T18:25:18.310Z,24.80
2019-06-27T18:30:37.429Z,24.82
2019-06-27T18:35:56.562Z,24.88
2019-06-27T18:41:15.856Z,24.35
2019-06-27T18:46:35.068Z,23.83
2019-06-27T18:51:54.139Z,23.81
2019-06-27T18:57:13.350Z,23.73
2019-06-27T19:02:32.533Z,23.74
2019-06-27T19:07:51.778Z,23.56
2019-06-27T19:13:10.854Z,23.24
2019-06-27T19:18:43.207Z,23.20
2019-06-27T19:24:15.999Z,22.42
2019-06-27T19:29:35.149Z,21.59
2019-06-27T19:34:54.295Z,21.21
2019-06-27T19:40:13.945Z,20.76
2019-06-27T19:45:33.076Z,20.53
2019-06-27T19:50:52.231Z,20.27
2019-06-27T19:56:11.390Z,20.04
2019-06-27T20:01:30.545Z,19.66
2019-06-27T20:06:49.675Z,19.48
2019-06-27T20:12:08.821Z,19.26
2019-06-27T20:17:28.087Z,19.07
2019-06-27T20:22:48.926Z,18.88
2019-06-27T20:28:08.042Z,18.70
2019-06-27T20:33:34.005Z,18.55
2019-06-27T20:38:53.151Z,18.39
2019-06-27T20:44:12.625Z,18.17
2019-06-27T20:49:31.764Z,18.05
2019-06-27T20:54:50.974Z,17.94
2019-06-27T21:00:10.466Z,17.78
2019-06-27T21:05:29.560Z,17.68
2019-06-27T21:10:48.695Z,17.44
2019-06-27T21:16:07.828Z,17.33
2019-06-27T21:21:26.976Z,17.24
2019-06-27T21:26:46.109Z,17.03
2019-06-27T21:32:05.272Z,16.95
2019-06-27T21:37:24.408Z,16.88
2019-06-27T21:42:43.560Z,16.85
2019-06-27T21:48:02.748Z,16.68
2019-06-27T21:53:21.883Z,16.64
2019-06-27T21:58:41.042Z,16.46
2019-06-27T22:04:00.186Z,16.34
2019-06-27T22:09:24.859Z,16.22
2019-06-27T22:14:40.215Z,16.04
2019-06-27T22:20:14.064Z,15.80
2019-06-27T22:25:20.218Z,15.55
2019-06-27T22:30:39.366Z,15.51
2019-06-27T22:35:58.502Z,15.55
2019-06-27T22:41:35.589Z,15.54
2019-06-27T22:47:12.866Z,15.49
2019-06-27T22:52:36.765Z,15.33
2019-06-27T22:57:55.907Z,15.20
2019-06-27T23:03:15.054Z,15.05
2019-06-27T23:08:34.188Z,14.99
2019-06-27T23:13:53.334Z,14.87
2019-06-27T23:19:12.474Z,14.77
2019-06-27T23:24:31.936Z,14.66
2019-06-27T23:29:51.017Z,14.56
2019-06-27T23:35:10.262Z,14.40
2019-06-27T23:40:29.335Z,14.29
2019-06-27T23:45:48.552Z,14.16
2019-06-27T23:51:07.639Z,14.07
2019-06-27T23:56:26.722Z,14.04
